createdAt,value
2023-02-13T00:00:47.143Z,100740.86
2023-02-13T00:03:35.728Z,100743.25
2023-02-13T00:06:24.515Z,100741.36
2023-02-13T00:09:13.409Z,100746.75
2023-02-13T00:12:01.952Z,100742.73
2023-02-13T00:14:30.355Z,100745.35
2023-02-13T00:17:18.841Z,100742.34
2023-02-13T00:20:10.019Z,100740.92
2023-02-13T00:22:59.512Z,100740.80
2023-02-13T00:25:48.132Z,100742.98
2023-02-13T00:28:37.237Z,100746.80
2023-02-13T00:31:26.000Z,100745.16
2023-02-13T00:34:14.678Z,100746.97
2023-02-13T00:37:03.356Z,100746.21
2023-02-13T00:39:52.059Z,100745.44
2023-02-13T00:42:40.619Z,100746.98
2023-02-13T00:45:29.238Z,100753.75
2023-02-13T00:48:17.876Z,100750.14
2023-02-13T00:51:07.653Z,100745.08
2023-02-13T00:53:56.264Z,100742.64
2023-02-13T00:56:44.869Z,100739.86
2023-02-13T00:59:33.425Z,100731.70
2023-02-13T01:02:22.043Z,100731.27
2023-02-13T01:05:11.029Z,100730.66
2023-02-13T01:07:59.599Z,100726.02
2023-02-13T01:10:49.099Z,100726.98
2023-02-13T01:13:38.015Z,100722.80
2023-02-13T01:16:26.699Z,100727.08
2023-02-13T01:19:15.829Z,100719.86
2023-02-13T01:22:04.505Z,100713.27
2023-02-13T01:24:53.064Z,100710.52
2023-02-13T01:27:41.798Z,100712.09
2023-02-13T01:30:30.648Z,100713.21
2023-02-13T01:33:19.311Z,100713.98
2023-02-13T01:36:13.410Z,100711.07
2023-02-13T01:39:02.097Z,100702.70
2023-02-13T01:41:30.518Z,100702.55
2023-02-13T01:44:47.567Z,100697.71
2023-02-13T01:47:41.845Z,100693.92
2023-02-13T01:50:36.377Z,100691.17
2023-02-13T01:53:30.012Z,100689.34
2023-02-13T01:56:25.000Z,100692.54
2023-02-13T01:59:16.940Z,100691.16
2023-02-13T02:01:49.649Z,100691.89
2023-02-13T02:04:38.857Z,100687.95
2023-02-13T02:07:31.174Z,100680.95
2023-02-13T02:10:20.648Z,100682.85
2023-02-13T02:13:12.699Z,100679.10
2023-02-13T02:16:02.053Z,100683.98
2023-02-13T02:18:30.724Z,100681.54
2023-02-13T02:21:45.414Z,100686.23
2023-02-13T02:25:02.300Z,100681.92
2023-02-13T02:28:23.505Z,100678.66
2023-02-13T02:31:44.755Z,100674.67
2023-02-13T02:34:43.620Z,100671.45
2023-02-13T02:37:44.584Z,100666.73
2023-02-13T02:40:43.183Z,100666.39
2023-02-13T02:43:47.003Z,100665.04
2023-02-13T02:47:12.570Z,100659.50
2023-02-13T02:50:12.797Z,100661.44
2023-02-13T02:53:12.060Z,100666.48
2023-02-13T02:55:56.173Z,100673.25
2023-02-13T02:59:08.923Z,100680.80
2023-02-13T03:02:28.197Z,100677.83
2023-02-13T03:05:35.944Z,100680.58
2023-02-13T03:08:39.307Z,100679.60
2023-02-13T03:11:46.306Z,100682.20
2023-02-13T03:14:35.388Z,100679.95
2023-02-13T03:17:42.160Z,100677.86
2023-02-13T03:21:01.124Z,100680.34
2023-02-13T03:23:58.237Z,100679.94
2023-02-13T03:26:54.600Z,100678.36
2023-02-13T03:30:10.970Z,100677.09
2023-02-13T03:33:12.611Z,100679.05
2023-02-13T03:36:31.172Z,100678.39
2023-02-13T03:39:07.238Z,100675.70
2023-02-13T03:42:01.924Z,100675.52
2023-02-13T03:45:10.139Z,100669.55
2023-02-13T03:48:00.764Z,100669.32
2023-02-13T03:50:49.626Z,100669.98
2023-02-13T03:53:42.512Z,100674.59
2023-02-13T03:56:51.935Z,100674.60
2023-02-13T03:59:40.863Z,100681.86
2023-02-13T04:02:33.983Z,100683.55
2023-02-13T04:05:27.503Z,100687.27
2023-02-13T04:08:16.820Z,100682.14
2023-02-13T04:11:16.067Z,100679.28
2023-02-13T04:14:08.334Z,100678.17
2023-02-13T04:17:03.143Z,100677.80
2023-02-13T04:19:52.579Z,100673.93
2023-02-13T04:22:45.969Z,100671.89
2023-02-13T04:25:35.404Z,100680.70
2023-02-13T04:28:24.046Z,100679.10
2023-02-13T04:31:12.737Z,100680.19
2023-02-13T04:34:01.847Z,100675.96
2023-02-13T04:36:50.500Z,100674.09
2023-02-13T04:39:39.109Z,100670.47
2023-02-13T04:42:27.772Z,100671.34
2023-02-13T04:45:17.138Z,100669.68
2023-02-13T04:48:05.834Z,100670.08
2023-02-13T04:50:54.470Z,100672.11
2023-02-13T04:53:43.084Z,100674.80
2023-02-13T04:56:31.762Z,100678.44
2023-02-13T04:59:20.445Z,100675.83
2023-02-13T05:02:09.131Z,100677.95
2023-02-13T05:04:57.781Z,100677.58
2023-02-13T05:07:46.775Z,100674.45
2023-02-13T05:10:36.177Z,100666.48
2023-02-13T05:13:24.927Z,100666.45
2023-02-13T05:16:13.589Z,100666.86
2023-02-13T05:19:02.396Z,100662.08
2023-02-13T05:21:49.378Z,100662.79
2023-02-13T05:24:23.688Z,100658.81
2023-02-13T05:27:12.436Z,100656.50
2023-02-13T05:30:01.110Z,100660.58
2023-02-13T05:32:51.202Z,100664.88
2023-02-13T05:35:39.788Z,100673.21
2023-02-13T05:38:28.885Z,100675.49
2023-02-13T05:41:17.742Z,100671.64
2023-02-13T05:44:06.374Z,100672.89
2023-02-13T05:46:54.970Z,100674.61
2023-02-13T05:49:43.530Z,100674.86
2023-02-13T05:52:32.137Z,100671.77
2023-02-13T05:55:20.733Z,100664.89
2023-02-13T05:58:11.364Z,100672.82
2023-02-13T06:01:00.758Z,100669.58
2023-02-13T06:03:49.759Z,100668.65
2023-02-13T06:06:38.417Z,100671.66
2023-02-13T06:09:27.160Z,100676.16
2023-02-13T06:12:15.945Z,100675.86
2023-02-13T06:15:06.539Z,100676.77
2023-02-13T06:17:55.278Z,100680.06
2023-02-13T06:20:30.996Z,100678.76
2023-02-13T06:23:19.655Z,100682.98
2023-02-13T06:26:09.403Z,100684.45
2023-02-13T06:28:58.083Z,100689.60
2023-02-13T06:31:46.738Z,100693.08
2023-02-13T06:34:35.483Z,100691.77
2023-02-13T06:37:24.101Z,100691.28
2023-02-13T06:40:15.032Z,100688.73
2023-02-13T06:43:03.831Z,100689.45
2023-02-13T06:45:53.205Z,100696.30
2023-02-13T06:48:41.842Z,100692.41
2023-02-13T06:51:30.612Z,100687.77
2023-02-13T06:54:19.349Z,100685.02
2023-02-13T06:57:08.109Z,100691.82
2023-02-13T06:59:56.741Z,100697.52
2023-02-13T07:02:47.131Z,100697.22
2023-02-13T07:05:35.887Z,100699.10
2023-02-13T07:08:24.557Z,100703.59
2023-02-13T07:11:18.486Z,100700.73
2023-02-13T07:13:50.495Z,100696.14
2023-02-13T07:16:39.134Z,100699.84
2023-02-13T07:19:12.965Z,100698.21
2023-02-13T07:22:01.540Z,100698.96
2023-02-13T07:24:50.125Z,100702.27
2023-02-13T07:27:38.685Z,100696.83
2023-02-13T07:30:27.291Z,100700.59
2023-02-13T07:33:15.975Z,100700.05
2023-02-13T07:36:05.701Z,100696.95
2023-02-13T07:38:54.362Z,100698.48
2023-02-13T07:41:43.086Z,100703.96
2023-02-13T07:44:31.675Z,100702.65
2023-02-13T07:47:20.496Z,100697.75
2023-02-13T07:50:11.488Z,100694.27
2023-02-13T07:53:02.071Z,100690.29
2023-02-13T07:55:50.917Z,100689.02
2023-02-13T07:58:39.956Z,100685.35
2023-02-13T08:01:28.588Z,100679.97
2023-02-13T08:04:17.414Z,100685.18
2023-02-13T08:07:06.010Z,100686.66
2023-02-13T08:10:12.821Z,100691.98
2023-02-13T08:13:01.736Z,100696.05
2023-02-13T08:15:35.823Z,100699.48
2023-02-13T08:18:24.528Z,100699.25
2023-02-13T08:21:14.546Z,100697.03
2023-02-13T08:24:03.353Z,100695.36
2023-02-13T08:26:34.988Z,100692.66
2023-02-13T08:29:23.958Z,100695.29
2023-02-13T08:32:12.643Z,100694.91
2023-02-13T08:35:01.710Z,100693.19
2023-02-13T08:37:50.311Z,100696.34
2023-02-13T08:40:38.986Z,100698.95
2023-02-13T08:43:27.655Z,100697.41
2023-02-13T08:46:16.560Z,100694.41
2023-02-13T08:49:05.251Z,100694.20
2023-02-13T08:51:55.480Z,100696.48
2023-02-13T08:54:44.086Z,100696.14
2023-02-13T08:57:32.703Z,100693.70
2023-02-13T09:00:22.415Z,100690.47
2023-02-13T09:03:11.102Z,100690.40
2023-02-13T09:06:00.679Z,100686.52
2023-02-13T09:08:32.473Z,100684.13
2023-02-13T09:11:22.754Z,100685.23
2023-02-13T09:13:55.123Z,100684.49
2023-02-13T09:16:43.696Z,100679.41
2023-02-13T09:19:23.767Z,100682.11
2023-02-13T09:22:12.333Z,100679.75
2023-02-13T09:25:03.577Z,100684.17
2023-02-13T09:27:52.176Z,100683.18
2023-02-13T09:30:41.113Z,100691.23
2023-02-13T09:33:30.016Z,100693.38
2023-02-13T09:36:20.326Z,100691.16
2023-02-13T09:39:09.908Z,100682.64
2023-02-13T09:41:44.416Z,100681.39
2023-02-13T09:44:38.349Z,100683.75
2023-02-13T09:47:31.188Z,100684.25
2023-02-13T09:50:24.041Z,100691.02
2023-02-13T09:53:22.963Z,100686.30
2023-02-13T09:56:16.159Z,100684.61
2023-02-13T09:59:17.743Z,100680.26
2023-02-13T10:02:24.380Z,100682.66
2023-02-13T10:05:30.866Z,100680.02
2023-02-13T10:08:34.470Z,100671.42
2023-02-13T10:11:38.305Z,100675.57
2023-02-13T10:14:32.830Z,100671.31
2023-02-13T10:17:27.898Z,100669.83
2023-02-13T10:20:28.428Z,100668.44
2023-02-13T10:23:24.229Z,100664.49
2023-02-13T10:26:20.381Z,100661.08
2023-02-13T10:29:24.830Z,100659.73
2023-02-13T10:32:18.098Z,100651.08
2023-02-13T10:35:20.578Z,100644.66
2023-02-13T10:38:18.334Z,100644.75
2023-02-13T10:41:24.893Z,100631.84
2023-02-13T10:44:10.277Z,100631.29
2023-02-13T10:47:09.967Z,100632.58
2023-02-13T10:50:11.744Z,100633.45
2023-02-13T10:53:11.276Z,100636.23
2023-02-13T10:56:13.727Z,100628.54
2023-02-13T10:59:31.248Z,100627.73
2023-02-13T11:02:24.777Z,100619.95
2023-02-13T11:05:17.603Z,100618.13
2023-02-13T11:08:19.038Z,100613.04
2023-02-13T11:11:28.944Z,100610.66
2023-02-13T11:14:19.110Z,100604.20
2023-02-13T11:17:16.861Z,100605.98
2023-02-13T11:20:01.253Z,100608.95
2023-02-13T11:22:50.058Z,100607.39
2023-02-13T11:25:38.812Z,100607.70
2023-02-13T11:28:29.582Z,100608.09
2023-02-13T11:31:19.882Z,100604.92
2023-02-13T11:33:51.579Z,100601.41
2023-02-13T11:36:40.140Z,100596.86
2023-02-13T11:39:28.697Z,100592.70
2023-02-13T11:42:21.291Z,100593.18
2023-02-13T11:45:23.381Z,100591.02
2023-02-13T11:48:21.704Z,100587.73
2023-02-13T11:51:10.459Z,100590.86
2023-02-13T11:54:00.409Z,100592.23
2023-02-13T11:57:04.062Z,100593.70
2023-02-13T11:59:54.102Z,100591.52
2023-02-13T12:02:45.413Z,100590.25
2023-02-13T12:05:34.165Z,100590.96
2023-02-13T12:08:22.905Z,100586.14
2023-02-13T12:11:23.475Z,100585.45
2023-02-13T12:14:16.600Z,100583.10
2023-02-13T12:16:50.143Z,100568.65
2023-02-13T12:19:42.128Z,100566.70
2023-02-13T12:22:35.947Z,100573.64
2023-02-13T12:25:39.632Z,100574.30
2023-02-13T12:28:23.681Z,100575.85
2023-02-13T12:31:20.723Z,100574.23
2023-02-13T12:34:36.966Z,100573.91
2023-02-13T12:37:20.793Z,100570.83
2023-02-13T12:40:23.253Z,100569.83
2023-02-13T12:43:32.753Z,100570.61
2023-02-13T12:46:30.298Z,100564.08
2023-02-13T12:49:42.266Z,100561.02
2023-02-13T12:52:40.283Z,100556.77
2023-02-13T12:56:05.124Z,100559.21
2023-02-13T12:59:07.951Z,100555.61
2023-02-13T13:02:18.254Z,100557.80
2023-02-13T13:05:19.308Z,100548.98
2023-02-13T13:08:32.563Z,100558.96
2023-02-13T13:11:38.139Z,100557.45
2023-02-13T13:14:36.289Z,100556.26
2023-02-13T13:17:49.329Z,100563.64
2023-02-13T13:20:37.286Z,100566.20
2023-02-13T13:23:31.264Z,100561.64
2023-02-13T13:26:27.086Z,100563.98
2023-02-13T13:29:21.328Z,100558.16
2023-02-13T13:32:13.361Z,100553.98
2023-02-13T13:35:02.914Z,100555.45
2023-02-13T13:37:41.538Z,100551.79
2023-02-13T13:40:40.999Z,100550.70
2023-02-13T13:43:38.411Z,100552.35
2023-02-13T13:46:21.722Z,100555.12
2023-02-13T13:49:20.285Z,100549.62
2023-02-13T13:52:23.137Z,100555.11
2023-02-13T13:55:49.953Z,100558.77
2023-02-13T13:58:24.128Z,100556.06
2023-02-13T14:01:32.980Z,100552.55
2023-02-13T14:04:43.120Z,100555.82
2023-02-13T14:07:36.616Z,100557.03
2023-02-13T14:11:08.219Z,100551.54
2023-02-13T14:13:40.244Z,100552.08
2023-02-13T14:16:41.087Z,100547.99
2023-02-13T14:19:32.944Z,100542.51
2023-02-13T14:22:37.928Z,100548.14
2023-02-13T14:25:27.978Z,100542.46
2023-02-13T14:28:22.970Z,100541.08
2023-02-13T14:31:21.935Z,100546.75
2023-02-13T14:34:26.395Z,100543.55
2023-02-13T14:37:22.392Z,100540.95
2023-02-13T14:40:32.652Z,100546.38
2023-02-13T14:43:47.548Z,100540.42
2023-02-13T14:46:40.527Z,100541.59
2023-02-13T14:49:32.745Z,100546.13
2023-02-13T14:52:34.582Z,100547.10
2023-02-13T14:55:33.653Z,100542.35
2023-02-13T14:58:25.746Z,100535.05
2023-02-13T15:01:25.975Z,100537.41
2023-02-13T15:04:21.671Z,100539.63
2023-02-13T15:07:16.454Z,100533.95
2023-02-13T15:10:24.208Z,100524.88
2023-02-13T15:13:03.085Z,100528.93
2023-02-13T15:15:58.920Z,100526.31
2023-02-13T15:18:51.656Z,100524.45
2023-02-13T15:21:46.975Z,100526.23
2023-02-13T15:24:43.408Z,100530.89
2023-02-13T15:27:36.066Z,100523.45
2023-02-13T15:30:26.697Z,100521.89
2023-02-13T15:33:18.538Z,100523.25
2023-02-13T15:36:07.452Z,100533.38
2023-02-13T15:38:38.965Z,100535.38
2023-02-13T15:41:33.389Z,100527.36
2023-02-13T15:44:18.549Z,100526.31
2023-02-13T15:47:16.626Z,100529.59
2023-02-13T15:49:51.046Z,100532.56
2023-02-13T15:52:30.402Z,100523.59
2023-02-13T15:55:21.116Z,100516.62
2023-02-13T15:58:13.531Z,100524.03
2023-02-13T16:01:06.630Z,100525.88
2023-02-13T16:04:01.937Z,100525.63
2023-02-13T16:06:53.275Z,100532.80
2023-02-13T16:09:30.100Z,100536.80
2023-02-13T16:12:05.381Z,100536.05
2023-02-13T16:14:59.208Z,100539.41
2023-02-13T16:17:48.596Z,100541.27
2023-02-13T16:20:38.196Z,100540.82
2023-02-13T16:23:26.968Z,100538.82
2023-02-13T16:26:13.604Z,100539.35
2023-02-13T16:29:02.367Z,100536.14
2023-02-13T16:31:53.241Z,100545.97
2023-02-13T16:34:41.996Z,100547.52
2023-02-13T16:37:32.716Z,100548.70
2023-02-13T16:40:40.480Z,100553.27
2023-02-13T16:43:40.969Z,100560.31
2023-02-13T16:46:30.727Z,100563.38
2023-02-13T16:49:26.574Z,100564.09
2023-02-13T16:52:10.753Z,100554.94
2023-02-13T16:54:54.903Z,100546.55
2023-02-13T16:57:44.478Z,100535.91
2023-02-13T17:00:33.510Z,100528.41
2023-02-13T17:03:22.213Z,100520.10
2023-02-13T17:06:11.178Z,100518.80
2023-02-13T17:08:52.119Z,100519.95
2023-02-13T17:11:40.746Z,100517.85
2023-02-13T17:14:29.350Z,100524.76
2023-02-13T17:17:12.760Z,100523.72
2023-02-13T17:20:03.546Z,100508.27
2023-02-13T17:22:54.254Z,100506.46
2023-02-13T17:25:45.589Z,100508.98
2023-02-13T17:28:34.325Z,100510.61
2023-02-13T17:31:13.572Z,100509.11
2023-02-13T17:33:44.348Z,100500.19
2023-02-13T17:36:33.038Z,100498.80
2023-02-13T17:39:21.745Z,100509.69
2023-02-13T17:42:18.840Z,100516.23
2023-02-13T17:44:47.941Z,100509.64
2023-02-13T17:47:36.378Z,100500.70
2023-02-13T17:50:13.688Z,100497.90
2023-02-13T17:53:05.359Z,100501.39
2023-02-13T17:55:54.136Z,100512.00
2023-02-13T17:58:42.778Z,100509.38
2023-02-13T18:01:31.572Z,100504.19
2023-02-13T18:04:09.118Z,100513.56
2023-02-13T18:06:57.708Z,100512.10
2023-02-13T18:09:46.688Z,100508.17
2023-02-13T18:12:35.404Z,100496.80
2023-02-13T18:15:24.256Z,100475.48
2023-02-13T18:18:15.190Z,100470.52
2023-02-13T18:20:56.767Z,100480.63
2023-02-13T18:23:45.659Z,100502.96
2023-02-13T18:26:34.640Z,100521.70
2023-02-13T18:29:23.629Z,100523.04
2023-02-13T18:32:12.833Z,100520.59
2023-02-13T18:35:02.120Z,100518.29
2023-02-13T18:37:33.562Z,100515.46
2023-02-13T18:40:22.499Z,100523.16
2023-02-13T18:43:11.308Z,100527.77
2023-02-13T18:46:00.961Z,100531.24
2023-02-13T18:48:49.893Z,100522.06
2023-02-13T18:51:38.531Z,100524.06
2023-02-13T18:54:18.483Z,100539.38
2023-02-13T18:56:49.928Z,100539.28
2023-02-13T18:59:38.598Z,100539.20
2023-02-13T19:02:27.396Z,100540.98
2023-02-13T19:05:16.311Z,100540.88
2023-02-13T19:07:49.231Z,100545.61
2023-02-13T19:10:37.848Z,100553.27
2023-02-13T19:13:26.693Z,100560.69
2023-02-13T19:16:18.032Z,100557.16
2023-02-13T19:19:07.551Z,100557.56
2023-02-13T19:21:56.484Z,100560.56
2023-02-13T19:24:45.106Z,100565.46
2023-02-13T19:27:36.698Z,100567.48
2023-02-13T19:30:25.514Z,100564.61
2023-02-13T19:33:14.563Z,100558.84
2023-02-13T19:36:07.398Z,100563.77
2023-02-13T19:38:58.252Z,100560.73
2023-02-13T19:41:47.335Z,100557.61
2023-02-13T19:44:36.155Z,100558.94
2023-02-13T19:47:25.235Z,100558.29
2023-02-13T19:50:17.114Z,100558.91
2023-02-13T19:53:06.924Z,100567.65
2023-02-13T19:55:59.795Z,100565.77
2023-02-13T19:58:48.311Z,100563.20
2023-02-13T20:01:21.606Z,100563.59
2023-02-13T20:03:55.932Z,100574.27
2023-02-13T20:06:44.807Z,100577.73
2023-02-13T20:09:17.307Z,100580.24
2023-02-13T20:12:06.095Z,100589.40
2023-02-13T20:14:55.819Z,100596.70
2023-02-13T20:17:35.180Z,100604.62
2023-02-13T20:20:24.067Z,100611.95
2023-02-13T20:22:55.266Z,100611.13
2023-02-13T20:25:33.465Z,100615.65
2023-02-13T20:28:22.421Z,100614.27
2023-02-13T20:31:13.064Z,100619.64
2023-02-13T20:34:05.235Z,100616.05
2023-02-13T20:36:54.188Z,100611.26
2023-02-13T20:39:43.187Z,100608.11
2023-02-13T20:42:33.622Z,100612.25
2023-02-13T20:45:43.042Z,100606.23
2023-02-13T20:48:15.107Z,100605.92
2023-02-13T20:51:07.089Z,100604.42
2023-02-13T20:53:56.044Z,100600.53
2023-02-13T20:56:45.337Z,100602.60
2023-02-13T20:59:33.926Z,100602.11
2023-02-13T21:02:22.602Z,100601.30
2023-02-13T21:05:11.428Z,100602.35
2023-02-13T21:08:00.227Z,100609.48
2023-02-13T21:10:48.861Z,100602.23
2023-02-13T21:13:39.659Z,100599.66
2023-02-13T21:16:30.746Z,100604.38
2023-02-13T21:19:05.361Z,100603.23
2023-02-13T21:21:53.889Z,100596.55
2023-02-13T21:24:43.329Z,100597.52
2023-02-13T21:27:16.891Z,100594.91
2023-02-13T21:30:08.405Z,100596.30
2023-02-13T21:32:58.665Z,100588.04
2023-02-13T21:35:47.223Z,100582.25
2023-02-13T21:38:36.816Z,100587.60
2023-02-13T21:41:25.494Z,100585.52
2023-02-13T21:44:15.370Z,100586.39
2023-02-13T21:47:06.971Z,100583.49
2023-02-13T21:49:55.701Z,100582.68
2023-02-13T21:52:44.308Z,100580.40
2023-02-13T21:55:18.550Z,100575.45
2023-02-13T21:58:08.424Z,100576.31
2023-02-13T22:00:39.322Z,100573.02
2023-02-13T22:03:28.247Z,100574.80
2023-02-13T22:06:10.044Z,100574.84
2023-02-13T22:09:00.852Z,100580.34
2023-02-13T22:11:51.724Z,100584.61
2023-02-13T22:14:41.256Z,100593.27
2023-02-13T22:17:33.787Z,100591.45
2023-02-13T22:20:22.583Z,100594.44
2023-02-13T22:23:11.140Z,100589.91
2023-02-13T22:25:59.927Z,100589.09
2023-02-13T22:28:48.651Z,100583.73
2023-02-13T22:31:38.064Z,100579.40
2023-02-13T22:34:26.745Z,100578.68
2023-02-13T22:37:15.298Z,100573.54
2023-02-13T22:40:06.231Z,100577.98
2023-02-13T22:42:54.799Z,100580.23
2023-02-13T22:45:43.379Z,100578.38
2023-02-13T22:48:32.336Z,100576.53
2023-02-13T22:51:23.039Z,100578.85
2023-02-13T22:54:11.737Z,100573.27
2023-02-13T22:57:00.321Z,100569.89
2023-02-13T22:59:48.946Z,100569.64
2023-02-13T23:02:37.713Z,100567.39
2023-02-13T23:05:26.762Z,100576.58
2023-02-13T23:08:15.497Z,100572.66
2023-02-13T23:11:25.333Z,100575.55
2023-02-13T23:14:14.365Z,100578.33
2023-02-13T23:17:21.166Z,100576.95
2023-02-13T23:19:59.805Z,100577.20
2023-02-13T23:22:48.686Z,100570.00
2023-02-13T23:25:38.503Z,100569.81
2023-02-13T23:28:27.216Z,100566.88
2023-02-13T23:31:15.859Z,100557.64
2023-02-13T23:34:04.728Z,100557.59
2023-02-13T23:36:53.368Z,100560.44
2023-02-13T23:39:42.202Z,100558.65
2023-02-13T23:42:31.097Z,100555.63
2023-02-13T23:45:20.061Z,100558.52
2023-02-13T23:48:09.558Z,100562.13
2023-02-13T23:50:58.426Z,100557.96
2023-02-13T23:53:47.217Z,100558.10
2023-02-13T23:56:35.950Z,100557.70
2023-02-13T23:59:24.761Z,100556.49
